createdAt,value
2022-07-29T00:02:18.083Z,99152.09
2022-07-29T00:05:06.910Z,99145.13
2022-07-29T00:07:55.544Z,99141.88
2022-07-29T00:10:43.026Z,99142.88
2022-07-29T00:13:32.456Z,99137.66
2022-07-29T00:16:20.345Z,99130.84
2022-07-29T00:19:07.925Z,99137.03
2022-07-29T00:21:54.991Z,99130.41
2022-07-29T00:24:43.434Z,99136.56
2022-07-29T00:27:30.533Z,99144.72
2022-07-29T00:30:18.125Z,99133.50
2022-07-29T00:33:09.007Z,99131.03
2022-07-29T00:35:56.821Z,99127.81
2022-07-29T00:38:46.274Z,99128.13
2022-07-29T00:41:35.075Z,99124.91
2022-07-29T00:44:22.241Z,99121.47
2022-07-29T00:47:10.085Z,99115.66
2022-07-29T00:49:57.207Z,99123.63
2022-07-29T00:52:45.449Z,99112.41
2022-07-29T00:55:33.228Z,99115.19
2022-07-29T00:58:21.797Z,99118.75
2022-07-29T01:01:09.172Z,99115.72
2022-07-29T01:03:56.538Z,99120.25
2022-07-29T01:06:45.194Z,99113.47
2022-07-29T01:09:45.419Z,99114.44
2022-07-29T01:12:36.747Z,99110.19
2022-07-29T01:15:26.273Z,99113.16
2022-07-29T01:18:22.203Z,99104.72
2022-07-29T01:21:35.827Z,99101.66
2022-07-29T01:24:44.632Z,99093.38
2022-07-29T01:27:49.901Z,99088.53
2022-07-29T01:30:40.580Z,99094.88
2022-07-29T01:33:49.396Z,99097.66
2022-07-29T01:36:49.578Z,99086.59
2022-07-29T01:39:39.721Z,99085.63
2022-07-29T01:42:34.848Z,99094.38
2022-07-29T01:45:29.202Z,99087.56
2022-07-29T01:48:23.851Z,99086.78
2022-07-29T01:51:17.372Z,99088.56
2022-07-29T01:54:11.121Z,99087.91
2022-07-29T01:57:00.996Z,99099.25
2022-07-29T01:59:50.905Z,99092.63
2022-07-29T02:02:40.260Z,99097.00
2022-07-29T02:05:31.207Z,99097.34
2022-07-29T02:08:20.824Z,99089.88
2022-07-29T02:11:09.835Z,99096.06
2022-07-29T02:14:00.358Z,99094.44
2022-07-29T02:16:49.823Z,99095.59
2022-07-29T02:19:39.699Z,99093.16
2022-07-29T02:22:31.835Z,99092.50
2022-07-29T02:25:19.742Z,99088.31
2022-07-29T02:28:08.672Z,99090.09
2022-07-29T02:30:59.892Z,99090.38
2022-07-29T02:33:49.483Z,99098.16
2022-07-29T02:36:37.709Z,99087.00
2022-07-29T02:39:28.191Z,99093.94
2022-07-29T02:42:18.962Z,99088.75
2022-07-29T02:45:07.550Z,99092.50
2022-07-29T02:47:57.864Z,99082.47
2022-07-29T02:50:52.164Z,99086.84
2022-07-29T02:53:41.027Z,99082.81
2022-07-29T02:56:35.962Z,99081.19
2022-07-29T02:59:28.181Z,99085.56
2022-07-29T03:02:17.526Z,99078.75
2022-07-29T03:05:07.547Z,99085.56
2022-07-29T03:08:00.150Z,99079.88
2022-07-29T03:10:48.774Z,99085.88
2022-07-29T03:13:38.139Z,99079.88
2022-07-29T03:16:26.195Z,99083.44
2022-07-29T03:19:13.305Z,99088.63
2022-07-29T03:22:00.857Z,99087.03
2022-07-29T03:24:48.265Z,99087.03
2022-07-29T03:27:36.591Z,99088.00
2022-07-29T03:30:26.395Z,99080.41
2022-07-29T03:33:14.657Z,99088.00
2022-07-29T03:36:03.396Z,99077.81
2022-07-29T03:38:51.827Z,99079.56
2022-07-29T03:41:42.676Z,99085.41
2022-07-29T03:44:31.146Z,99090.59
2022-07-29T03:47:27.052Z,99093.19
2022-07-29T03:50:36.156Z,99085.72
2022-07-29T03:53:23.462Z,99085.72
2022-07-29T03:56:12.856Z,99085.72
2022-07-29T03:59:01.422Z,99079.72
2022-07-29T04:01:49.735Z,99079.72
2022-07-29T04:04:38.875Z,99079.56
2022-07-29T04:07:25.929Z,99078.94
2022-07-29T04:10:13.372Z,99073.75
2022-07-29T04:13:01.181Z,99073.75
2022-07-29T04:15:48.719Z,99077.31
2022-07-29T04:18:36.508Z,99077.31
2022-07-29T04:21:25.868Z,99078.09
2022-07-29T04:24:14.226Z,99080.06
2022-07-29T04:27:01.546Z,99082.66
2022-07-29T04:29:56.035Z,99087.84
2022-07-29T04:32:46.185Z,99082.84
2022-07-29T04:35:38.188Z,99090.63
2022-07-29T04:38:27.418Z,99092.38
2022-07-29T04:41:14.662Z,99102.13
2022-07-29T04:44:08.797Z,99099.53
2022-07-29T04:46:55.774Z,99100.31
2022-07-29T04:49:42.968Z,99098.69
2022-07-29T04:52:30.373Z,99090.13
2022-07-29T04:55:19.227Z,99097.91
2022-07-29T04:58:06.258Z,99095.31
2022-07-29T05:00:53.554Z,99102.13
2022-07-29T05:03:40.671Z,99093.50
2022-07-29T05:06:28.102Z,99098.56
2022-07-29T05:09:15.501Z,99096.75
2022-07-29T05:12:04.266Z,99094.81
2022-07-29T05:14:51.490Z,99100.81
2022-07-29T05:17:38.529Z,99103.41
2022-07-29T05:20:29.164Z,99095.47
2022-07-29T05:23:16.723Z,99097.09
2022-07-29T05:26:03.993Z,99100.47
2022-07-29T05:28:52.470Z,99106.31
2022-07-29T05:31:39.990Z,99096.59
2022-07-29T05:34:27.498Z,99109.38
2022-07-29T05:37:14.933Z,99102.44
2022-07-29T05:40:02.204Z,99103.88
2022-07-29T05:42:49.758Z,99116.69
2022-07-29T05:45:49.304Z,99112.94
2022-07-29T05:48:37.601Z,99118.13
2022-07-29T05:51:24.856Z,99110.19
2022-07-29T05:54:12.381Z,99114.25
2022-07-29T05:56:59.497Z,99114.06
2022-07-29T05:59:46.791Z,99119.09
2022-07-29T06:02:35.408Z,99115.53
2022-07-29T06:05:22.812Z,99124.63
2022-07-29T06:08:10.043Z,99125.41
2022-07-29T06:10:57.208Z,99120.06
2022-07-29T06:13:44.620Z,99118.13
2022-07-29T06:16:31.809Z,99121.34
2022-07-29T06:19:20.656Z,99129.78
2022-07-29T06:22:08.181Z,99127.66
2022-07-29T06:24:55.358Z,99119.72
2022-07-29T06:27:42.537Z,99120.38
2022-07-29T06:30:30.740Z,99123.44
2022-07-29T06:33:21.254Z,99127.50
2022-07-29T06:36:10.984Z,99130.72
2022-07-29T06:38:59.460Z,99132.16
2022-07-29T06:41:50.640Z,99131.03
2022-07-29T06:44:37.789Z,99129.06
2022-07-29T06:47:24.859Z,99131.34
2022-07-29T06:50:13.419Z,99136.19
2022-07-29T06:53:02.076Z,99124.66
2022-07-29T06:55:49.132Z,99119.97
2022-07-29T06:58:37.209Z,99130.00
2022-07-29T07:01:24.642Z,99131.28
2022-07-29T07:04:12.510Z,99137.94
2022-07-29T07:07:00.574Z,99138.38
2022-07-29T07:13:36.834Z,99139.84
2022-07-29T07:16:24.125Z,99150.03
2022-07-29T07:19:11.300Z,99152.31
2022-07-29T07:22:01.649Z,99148.72
2022-07-29T07:24:51.461Z,99149.38
2022-07-29T07:27:39.999Z,99149.06
2022-07-29T07:30:28.245Z,99141.94
2022-07-29T07:33:15.843Z,99151.31
2022-07-29T07:36:03.096Z,99145.16
2022-07-29T07:38:50.359Z,99143.03
2022-07-29T07:41:37.749Z,99142.88
2022-07-29T07:44:26.610Z,99145.47
2022-07-29T07:47:14.285Z,99143.53
2022-07-29T07:50:02.683Z,99147.72
2022-07-29T07:52:52.342Z,99150.00
2022-07-29T07:58:50.197Z,99147.22
2022-07-29T08:01:55.028Z,99153.69
2022-07-29T08:04:43.761Z,99148.31
2022-07-29T08:07:31.373Z,99147.97
2022-07-29T08:10:41.984Z,99157.22
2022-07-29T08:13:31.251Z,99152.03
2022-07-29T08:16:18.330Z,99157.03
2022-07-29T08:19:06.840Z,99156.69
2022-07-29T08:21:54.965Z,99152.31
2022-07-29T08:24:45.199Z,99146.16
2022-07-29T08:27:43.397Z,99154.56
2022-07-29T08:30:31.464Z,99158.97
2022-07-29T08:33:19.109Z,99155.38
2022-07-29T08:36:08.690Z,99152.78
2022-07-29T08:38:56.340Z,99157.81
2022-07-29T08:41:56.688Z,99161.88
2022-07-29T08:44:44.952Z,99166.22
2022-07-29T08:47:32.765Z,99159.25
2022-07-29T08:50:20.115Z,99155.66
2022-07-29T08:53:09.841Z,99163.28
2022-07-29T08:55:58.176Z,99170.09
2022-07-29T08:58:48.737Z,99175.31
2022-07-29T09:01:42.906Z,99168.97
2022-07-29T09:04:36.740Z,99166.19
2022-07-29T09:07:24.066Z,99169.44
2022-07-29T09:10:13.047Z,99167.47
2022-07-29T09:13:00.846Z,99166.31
2022-07-29T09:15:48.474Z,99164.38
2022-07-29T09:18:41.714Z,99170.00
2022-07-29T09:22:03.345Z,99172.44
2022-07-29T09:24:51.742Z,99162.84
2022-07-29T09:27:40.808Z,99166.91
2022-07-29T09:30:31.617Z,99163.28
2022-07-29T09:33:19.032Z,99160.56
2022-07-29T09:36:08.839Z,99149.00
2022-07-29T09:41:50.713Z,99153.88
2022-07-29T09:44:49.578Z,99151.91
2022-07-29T09:47:50.261Z,99158.72
2022-07-29T09:50:40.031Z,99155.16
2022-07-29T09:53:34.685Z,99149.59
2022-07-29T09:56:21.710Z,99158.03
2022-07-29T09:59:09.488Z,99161.25
2022-07-29T10:01:59.120Z,99153.28
2022-07-29T10:04:46.628Z,99152.31
2022-07-29T10:07:50.605Z,99158.94
2022-07-29T10:10:43.738Z,99156.97
2022-07-29T10:13:31.212Z,99159.56
2022-07-29T10:16:19.169Z,99166.88
2022-07-29T10:19:08.043Z,99157.91
2022-07-29T10:21:58.118Z,99157.56
2022-07-29T10:24:46.100Z,99153.00
2022-07-29T10:27:33.279Z,99157.47
2022-07-29T10:30:22.911Z,99161.81
2022-07-29T10:33:38.727Z,99162.09
2022-07-29T10:36:49.538Z,99158.16
2022-07-29T10:39:59.270Z,99158.91
2022-07-29T10:42:47.873Z,99155.44
2022-07-29T10:45:35.306Z,99158.56
2022-07-29T10:48:24.783Z,99156.06
2022-07-29T10:51:12.761Z,99157.94
2022-07-29T10:54:05.973Z,99148.78
2022-07-29T10:56:54.841Z,99147.81
2022-07-29T10:59:42.910Z,99142.25
2022-07-29T11:02:54.414Z,99137.03
2022-07-29T11:06:00.196Z,99134.63
2022-07-29T11:08:47.819Z,99129.59
2022-07-29T11:11:44.183Z,99138.19
2022-07-29T11:15:01.589Z,99130.91
2022-07-29T11:18:15.097Z,99141.31
2022-07-29T11:21:04.966Z,99142.34
2022-07-29T11:24:14.853Z,99144.94
2022-07-29T11:27:20.748Z,99126.06
2022-07-29T11:30:10.431Z,99128.69
2022-07-29T11:32:57.599Z,99126.06
2022-07-29T11:35:44.791Z,99125.47
2022-07-29T11:38:48.028Z,99124.81
2022-07-29T11:41:38.215Z,99123.03
2022-07-29T11:44:57.275Z,99121.22
2022-07-29T11:47:53.425Z,99116.81
2022-07-29T11:50:44.545Z,99123.66
2022-07-29T11:53:33.069Z,99115.66
2022-07-29T11:56:25.710Z,99117.28
2022-07-29T11:59:15.307Z,99102.28
2022-07-29T12:02:36.723Z,99099.53
2022-07-29T12:05:14.488Z,99101.28
2022-07-29T12:08:15.027Z,99095.28
2022-07-29T12:11:03.264Z,99090.28
2022-07-29T12:13:51.390Z,99086.03
2022-07-29T12:16:39.291Z,99078.22
2022-07-29T12:19:29.716Z,99081.63
2022-07-29T12:22:28.266Z,99083.25
2022-07-29T12:25:33.153Z,99082.47
2022-07-29T12:28:27.079Z,99085.25
2022-07-29T12:31:42.386Z,99086.84
2022-07-29T12:34:26.584Z,99083.44
2022-07-29T12:37:15.008Z,99079.84
2022-07-29T12:40:02.861Z,99084.06
2022-07-29T12:43:10.264Z,99081.63
2022-07-29T12:45:59.463Z,99079.84
2022-07-29T12:48:47.374Z,99064.84
2022-07-29T12:51:37.501Z,99068.09
2022-07-29T12:54:26.114Z,99073.91
2022-07-29T12:57:20.082Z,99067.72
2022-07-29T13:00:12.180Z,99064.13
2022-07-29T13:03:01.889Z,99069.34
2022-07-29T13:05:49.733Z,99063.16
2022-07-29T13:08:37.392Z,99063.75
2022-07-29T13:11:34.236Z,99062.97
2022-07-29T13:14:34.601Z,99067.16
2022-07-29T13:17:24.183Z,99069.59
2022-07-29T13:20:15.179Z,99073.81
2022-07-29T13:23:03.653Z,99061.81
2022-07-29T13:25:51.029Z,99060.19
2022-07-29T13:28:40.934Z,99070.59
2022-07-29T13:31:31.580Z,99069.75
2022-07-29T13:34:20.519Z,99068.00
2022-07-29T13:37:07.977Z,99070.59
2022-07-29T13:39:55.350Z,99073.81
2022-07-29T13:42:43.605Z,99072.22
2022-07-29T13:45:31.992Z,99068.00
2022-07-29T13:48:19.448Z,99074.19
2022-07-29T13:51:06.427Z,99081.00
2022-07-29T13:53:53.878Z,99074.19
2022-07-29T13:56:40.913Z,99066.56
2022-07-29T13:59:28.034Z,99063.16
2022-07-29T14:02:16.729Z,99061.53
2022-07-29T14:05:08.247Z,99058.09
2022-07-29T14:07:55.943Z,99062.50
2022-07-29T14:10:43.428Z,99054.69
2022-07-29T14:13:30.867Z,99047.69
2022-07-29T14:16:19.740Z,99052.91
2022-07-29T14:19:08.400Z,99060.56
2022-07-29T14:21:56.000Z,99060.56
2022-07-29T14:24:45.536Z,99063.75
2022-07-29T14:27:37.317Z,99065.38
2022-07-29T14:30:25.858Z,99050.56
2022-07-29T14:33:13.125Z,99062.59
2022-07-29T14:36:02.018Z,99063.38
2022-07-29T14:38:49.165Z,99060.00
2022-07-29T14:41:36.345Z,99058.19
2022-07-29T14:44:23.601Z,99066.63
2022-07-29T14:47:11.300Z,99054.41
2022-07-29T14:49:58.647Z,99055.84
2022-07-29T14:52:47.703Z,99057.47
2022-07-29T14:55:36.673Z,99055.66
2022-07-29T14:58:24.067Z,99059.88
2022-07-29T15:01:11.405Z,99058.25
2022-07-29T15:03:59.892Z,99065.09
2022-07-29T15:06:47.106Z,99071.09
2022-07-29T15:09:40.245Z,99069.13
2022-07-29T15:12:37.247Z,99063.28
2022-07-29T15:15:24.832Z,99067.50
2022-07-29T15:18:12.067Z,99057.09
2022-07-29T15:21:01.451Z,99067.50
2022-07-29T15:23:48.989Z,99067.50
2022-07-29T15:26:37.559Z,99061.50
2022-07-29T15:29:25.103Z,99061.69
2022-07-29T15:32:13.298Z,99064.28
2022-07-29T15:35:00.601Z,99060.25
2022-07-29T15:37:49.113Z,99064.63
2022-07-29T15:40:38.446Z,99061.44
2022-07-29T15:43:27.065Z,99071.84
2022-07-29T15:46:33.887Z,99073.19
2022-07-29T15:49:22.702Z,99065.75
2022-07-29T15:52:11.744Z,99062.50
2022-07-29T15:55:00.293Z,99057.50
2022-07-29T15:57:47.470Z,99061.06
2022-07-29T16:00:36.250Z,99059.66
2022-07-29T16:03:24.770Z,99071.03
2022-07-29T16:06:12.352Z,99083.25
2022-07-29T16:09:00.553Z,99066.84
2022-07-29T16:11:50.867Z,99074.84
2022-07-29T16:14:38.265Z,99082.81
2022-07-29T16:17:27.752Z,99087.41
2022-07-29T16:20:15.376Z,99099.78
2022-07-29T16:23:02.786Z,99086.13
2022-07-29T16:25:59.718Z,99091.72
2022-07-29T16:28:47.727Z,99095.03
2022-07-29T16:31:36.201Z,99095.41
2022-07-29T16:34:25.071Z,99098.50
2022-07-29T16:37:12.506Z,99105.22
2022-07-29T16:39:59.741Z,99114.34
2022-07-29T16:42:47.578Z,99135.53
2022-07-29T16:45:45.081Z,99150.69
2022-07-29T16:48:34.057Z,99153.00
2022-07-29T16:51:24.382Z,99152.09
2022-07-29T16:54:11.924Z,99142.91
2022-07-29T16:57:02.007Z,99140.56
2022-07-29T16:59:51.020Z,99121.66
2022-07-29T17:02:38.831Z,99112.63
2022-07-29T17:05:26.338Z,99120.44
2022-07-29T17:08:15.032Z,99127.16
2022-07-29T17:11:02.249Z,99131.06
2022-07-29T17:13:49.458Z,99144.25
2022-07-29T17:16:37.264Z,99163.41
2022-07-29T17:19:24.576Z,99176.41
2022-07-29T17:22:18.759Z,99166.19
2022-07-29T17:25:10.060Z,99163.41
2022-07-29T17:28:00.932Z,99160.81
2022-07-29T17:30:48.432Z,99160.81
2022-07-29T17:33:36.089Z,99152.41
2022-07-29T17:36:26.953Z,99158.38
2022-07-29T17:39:14.114Z,99161.97
2022-07-29T17:42:03.053Z,99165.56
2022-07-29T17:44:50.381Z,99169.94
2022-07-29T17:47:38.486Z,99173.34
2022-07-29T17:50:25.938Z,99162.97
2022-07-29T17:53:16.192Z,99173.34
2022-07-29T17:56:04.187Z,99176.13
2022-07-29T17:58:54.192Z,99184.91
2022-07-29T18:01:41.898Z,99174.84
2022-07-29T18:04:31.002Z,99178.59
2022-07-29T18:07:18.583Z,99179.56
2022-07-29T18:10:07.239Z,99184.13
2022-07-29T18:12:54.787Z,99184.13
2022-07-29T18:15:45.164Z,99191.13
2022-07-29T18:18:32.493Z,99190.31
2022-07-29T18:21:37.402Z,99195.50
2022-07-29T18:24:29.119Z,99197.28
2022-07-29T18:27:16.379Z,99204.28
2022-07-29T18:30:04.820Z,99208.66
2022-07-29T18:33:19.137Z,99216.44
2022-07-29T18:36:09.992Z,99223.44
2022-07-29T18:38:58.712Z,99234.00
2022-07-29T18:41:46.165Z,99231.41
2022-07-29T18:44:43.761Z,99231.41
2022-07-29T18:47:36.992Z,99236.78
2022-07-29T18:50:30.219Z,99236.94
2022-07-29T18:53:17.340Z,99236.13
2022-07-29T18:56:04.773Z,99239.53
2022-07-29T18:58:52.219Z,99238.88
2022-07-29T19:01:39.316Z,99237.25
2022-07-29T19:04:27.123Z,99235.66
2022-07-29T19:07:17.373Z,99240.19
2022-07-29T19:10:05.743Z,99256.75
2022-07-29T19:12:53.021Z,99257.91
2022-07-29T19:15:40.437Z,99251.91
2022-07-29T19:18:27.803Z,99258.06
2022-07-29T19:21:15.514Z,99253.03
2022-07-29T19:24:11.053Z,99258.41
2022-07-29T19:27:01.162Z,99259.38
2022-07-29T19:29:48.657Z,99262.97
2022-07-29T19:32:35.821Z,99250.97
2022-07-29T19:35:28.334Z,99259.72
2022-07-29T19:38:16.080Z,99259.41
2022-07-29T19:41:06.220Z,99258.13
2022-07-29T19:43:53.623Z,99261.03
2022-07-29T19:46:41.190Z,99271.59
2022-07-29T19:49:28.390Z,99271.75
2022-07-29T19:52:16.223Z,99287.34
2022-07-29T19:55:07.519Z,99291.69
2022-07-29T19:57:58.684Z,99295.28
2022-07-29T20:00:47.321Z,99292.69
2022-07-29T20:03:34.928Z,99295.44
2022-07-29T20:06:23.087Z,99294.47
2022-07-29T20:09:17.000Z,99300.63
2022-07-29T20:12:09.493Z,99303.38
2022-07-29T20:14:58.357Z,99309.56
2022-07-29T20:17:45.848Z,99311.34
2022-07-29T20:20:33.136Z,99310.72
2022-07-29T20:23:22.309Z,99321.09
2022-07-29T20:26:10.105Z,99321.25
2022-07-29T20:28:57.292Z,99327.25
2022-07-29T20:31:45.772Z,99328.41
2022-07-29T20:34:41.338Z,99326.59
2022-07-29T20:37:28.706Z,99320.78
2022-07-29T20:40:16.885Z,99327.91
2022-07-29T20:43:04.093Z,99327.28
2022-07-29T20:45:51.297Z,99331.63
2022-07-29T20:48:40.880Z,99325.66
2022-07-29T20:51:28.322Z,99325.66
2022-07-29T20:54:15.602Z,99330.84
2022-07-29T20:57:02.997Z,99334.22
2022-07-29T20:59:50.527Z,99328.25
2022-07-29T21:02:37.965Z,99330.84
2022-07-29T21:05:26.694Z,99330.84
2022-07-29T21:08:13.861Z,99336.03
2022-07-29T21:11:01.139Z,99339.59
2022-07-29T21:13:48.699Z,99346.41
2022-07-29T21:16:35.903Z,99347.38
2022-07-29T21:19:23.174Z,99347.53
2022-07-29T21:22:12.615Z,99343.19
2022-07-29T21:24:59.836Z,99344.94
2022-07-29T21:28:04.208Z,99345.13
2022-07-29T21:30:51.262Z,99361.66
2022-07-29T21:33:39.834Z,99355.84
2022-07-29T21:39:35.775Z,99369.28
2022-07-29T21:42:23.200Z,99369.44
2022-07-29T21:45:13.361Z,99365.38
2022-07-29T21:48:00.499Z,99371.69
2022-07-29T21:50:48.975Z,99372.84
2022-07-29T21:53:36.385Z,99375.75
2022-07-29T21:56:27.560Z,99380.47
2022-07-29T21:59:15.373Z,99378.84
2022-07-29T22:02:02.560Z,99379.00
2022-07-29T22:04:50.689Z,99375.59
2022-07-29T22:07:55.924Z,99371.41
2022-07-29T22:10:44.098Z,99374.78
2022-07-29T22:13:32.915Z,99371.22
2022-07-29T22:16:24.352Z,99374.63
2022-07-29T22:19:11.370Z,99372.03
2022-07-29T22:21:58.633Z,99383.06
2022-07-29T22:24:45.654Z,99378.84
2022-07-29T22:27:33.091Z,99386.47
2022-07-29T22:30:21.732Z,99387.59
2022-07-29T22:33:09.295Z,99383.38
2022-07-29T22:36:04.089Z,99395.72
2022-07-29T22:38:52.148Z,99386.13
2022-07-29T22:41:39.561Z,99390.53
2022-07-29T22:44:26.781Z,99386.28
2022-07-29T22:47:15.667Z,99387.09
2022-07-29T22:50:02.797Z,99376.09
2022-07-29T22:52:49.932Z,99383.03
2022-07-29T22:55:37.091Z,99381.44
2022-07-29T22:58:24.524Z,99379.81
2022-07-29T23:01:11.938Z,99385.78
2022-07-29T23:04:00.930Z,99392.78
2022-07-29T23:06:48.335Z,99395.38
2022-07-29T23:09:35.596Z,99390.19
2022-07-29T23:12:23.019Z,99389.38
2022-07-29T23:15:10.696Z,99383.38
2022-07-29T23:17:58.799Z,99386.91
2022-07-29T23:20:47.298Z,99379.13
2022-07-29T23:23:34.572Z,99387.91
2022-07-29T23:26:21.933Z,99387.09
2022-07-29T23:29:09.349Z,99395.84
2022-07-29T23:31:56.457Z,99404.44
2022-07-29T23:34:43.747Z,99397.63
2022-07-29T23:37:32.331Z,99397.63
2022-07-29T23:40:20.107Z,99394.38
2022-07-29T23:43:08.601Z,99409.97
2022-07-29T23:45:57.285Z,99416.09
2022-07-29T23:48:45.501Z,99411.84
2022-07-29T23:51:32.795Z,99412.00
2022-07-29T23:54:21.158Z,99403.72
2022-07-29T23:57:08.528Z,99406.66
2022-07-29T23:59:56.277Z,99409.72
